sensor_id;sensor_type;location;lat;lon;timestamp;P1;durP1;ratioP1;P2;durP2;ratioP2
43150;SDS011;28755;51.478;5.702;2022-10-16T00:00:34;5.85;;;3.03;;
43150;SDS011;28755;51.478;5.702;2022-10-16T00:03:01;6.82;;;3.05;;
43150;SDS011;28755;51.478;5.702;2022-10-16T00:05:27;7.18;;;3.05;;
43150;SDS011;28755;51.478;5.702;2022-10-16T00:07:52;4.53;;;2.85;;
43150;SDS011;28755;51.478;5.702;2022-10-16T00:10:18;5.55;;;2.70;;
43150;SDS011;28755;51.478;5.702;2022-10-16T00:12:43;7.38;;;3.00;;
43150;SDS011;28755;51.478;5.702;2022-10-16T00:15:09;9.82;;;2.80;;
43150;SDS011;28755;51.478;5.702;2022-10-16T00:17:35;8.43;;;3.20;;
43150;SDS011;28755;51.478;5.702;2022-10-16T00:20:00;5.93;;;2.50;;
43150;SDS011;28755;51.478;5.702;2022-10-16T00:22:26;3.90;;;2.42;;
43150;SDS011;28755;51.478;5.702;2022-10-16T00:24:51;5.53;;;2.88;;
43150;SDS011;28755;51.478;5.702;2022-10-16T00:27:17;5.45;;;2.83;;
43150;SDS011;28755;51.478;5.702;2022-10-16T00:29:42;6.38;;;2.60;;
43150;SDS011;28755;51.478;5.702;2022-10-16T00:32:08;6.25;;;2.60;;
43150;SDS011;28755;51.478;5.702;2022-10-16T00:34:34;7.63;;;3.15;;
43150;SDS011;28755;51.478;5.702;2022-10-16T00:37:00;6.93;;;2.92;;
43150;SDS011;28755;51.478;5.702;2022-10-16T00:39:25;7.28;;;2.60;;
43150;SDS011;28755;51.478;5.702;2022-10-16T00:41:51;4.60;;;2.60;;
43150;SDS011;28755;51.478;5.702;2022-10-16T00:47:17;4.20;;;2.25;;
43150;SDS011;28755;51.478;5.702;2022-10-16T00:49:50;4.78;;;2.38;;
43150;SDS011;28755;51.478;5.702;2022-10-16T00:52:20;7.57;;;2.45;;
43150;SDS011;28755;51.478;5.702;2022-10-16T00:54:46;7.93;;;2.42;;
43150;SDS011;28755;51.478;5.702;2022-10-16T00:57:12;6.40;;;2.28;;
43150;SDS011;28755;51.478;5.702;2022-10-16T00:59:39;7.45;;;2.67;;
43150;SDS011;28755;51.478;5.702;2022-10-16T01:02:07;3.22;;;2.22;;
43150;SDS011;28755;51.478;5.702;2022-10-16T01:04:40;6.75;;;2.47;;
43150;SDS011;28755;51.478;5.702;2022-10-16T01:12:51;7.35;;;2.20;;
43150;SDS011;28755;51.478;5.702;2022-10-16T01:15:48;7.78;;;2.20;;
43150;SDS011;28755;51.478;5.702;2022-10-16T01:18:30;5.25;;;2.38;;
43150;SDS011;28755;51.478;5.702;2022-10-16T01:21:05;5.68;;;2.72;;
43150;SDS011;28755;51.478;5.702;2022-10-16T01:23:40;6.35;;;2.67;;
43150;SDS011;28755;51.478;5.702;2022-10-16T01:29:48;3.47;;;2.42;;
43150;SDS011;28755;51.478;5.702;2022-10-16T01:35:17;4.20;;;2.60;;
43150;SDS011;28755;51.478;5.702;2022-10-16T01:38:13;7.05;;;2.40;;
43150;SDS011;28755;51.478;5.702;2022-10-16T01:40:55;7.18;;;2.65;;
43150;SDS011;28755;51.478;5.702;2022-10-16T01:43:28;5.80;;;2.30;;
43150;SDS011;28755;51.478;5.702;2022-10-16T01:46:15;2.88;;;1.83;;
43150;SDS011;28755;51.478;5.702;2022-10-16T01:48:43;3.67;;;2.60;;
43150;SDS011;28755;51.478;5.702;2022-10-16T01:51:10;5.30;;;2.42;;
43150;SDS011;28755;51.478;5.702;2022-10-16T01:53:38;8.68;;;2.45;;
43150;SDS011;28755;51.478;5.702;2022-10-16T01:56:07;3.25;;;2.00;;
43150;SDS011;28755;51.478;5.702;2022-10-16T01:58:35;5.55;;;1.90;;
43150;SDS011;28755;51.478;5.702;2022-10-16T02:01:04;5.65;;;2.08;;
43150;SDS011;28755;51.478;5.702;2022-10-16T02:03:34;6.43;;;2.00;;
43150;SDS011;28755;51.478;5.702;2022-10-16T02:06:02;5.60;;;1.92;;
43150;SDS011;28755;51.478;5.702;2022-10-16T02:08:28;2.95;;;1.98;;
43150;SDS011;28755;51.478;5.702;2022-10-16T02:10:59;2.72;;;1.90;;
43150;SDS011;28755;51.478;5.702;2022-10-16T02:15:59;6.20;;;1.85;;
43150;SDS011;28755;51.478;5.702;2022-10-16T02:18:25;3.50;;;1.75;;
43150;SDS011;28755;51.478;5.702;2022-10-16T02:21:01;5.13;;;1.90;;
43150;SDS011;28755;51.478;5.702;2022-10-16T02:26:30;3.70;;;1.75;;
43150;SDS011;28755;51.478;5.702;2022-10-16T02:29:01;3.13;;;2.00;;
43150;SDS011;28755;51.478;5.702;2022-10-16T02:31:32;7.70;;;2.00;;
43150;SDS011;28755;51.478;5.702;2022-10-16T02:34:00;4.80;;;1.85;;
43150;SDS011;28755;51.478;5.702;2022-10-16T02:36:30;8.67;;;1.87;;
43150;SDS011;28755;51.478;5.702;2022-10-16T02:38:57;3.60;;;1.85;;
43150;SDS011;28755;51.478;5.702;2022-10-16T02:41:25;6.60;;;1.80;;
43150;SDS011;28755;51.478;5.702;2022-10-16T02:43:51;6.75;;;2.05;;
43150;SDS011;28755;51.478;5.702;2022-10-16T02:46:16;5.93;;;1.67;;
43150;SDS011;28755;51.478;5.702;2022-10-16T02:48:43;5.88;;;1.73;;
43150;SDS011;28755;51.478;5.702;2022-10-16T02:51:09;3.80;;;1.63;;
43150;SDS011;28755;51.478;5.702;2022-10-16T02:53:34;5.50;;;2.28;;
43150;SDS011;28755;51.478;5.702;2022-10-16T02:56:00;6.25;;;1.92;;
43150;SDS011;28755;51.478;5.702;2022-10-16T02:58:25;8.50;;;2.25;;
43150;SDS011;28755;51.478;5.702;2022-10-16T03:00:51;5.70;;;1.77;;
43150;SDS011;28755;51.478;5.702;2022-10-16T03:03:16;13.20;;;2.50;;
43150;SDS011;28755;51.478;5.702;2022-10-16T03:05:43;7.18;;;2.63;;
43150;SDS011;28755;51.478;5.702;2022-10-16T03:08:10;4.78;;;2.20;;
43150;SDS011;28755;51.478;5.702;2022-10-16T03:10:36;9.02;;;2.40;;
43150;SDS011;28755;51.478;5.702;2022-10-16T03:13:02;6.63;;;2.35;;
43150;SDS011;28755;51.478;5.702;2022-10-16T03:15:28;5.57;;;2.78;;
43150;SDS011;28755;51.478;5.702;2022-10-16T03:17:54;5.75;;;2.20;;
43150;SDS011;28755;51.478;5.702;2022-10-16T03:20:20;5.68;;;2.42;;
43150;SDS011;28755;51.478;5.702;2022-10-16T03:22:45;4.32;;;2.38;;
43150;SDS011;28755;51.478;5.702;2022-10-16T03:25:11;3.35;;;2.00;;
43150;SDS011;28755;51.478;5.702;2022-10-16T03:27:36;5.60;;;2.05;;
43150;SDS011;28755;51.478;5.702;2022-10-16T03:30:02;3.45;;;2.00;;
43150;SDS011;28755;51.478;5.702;2022-10-16T03:32:28;6.18;;;1.80;;
43150;SDS011;28755;51.478;5.702;2022-10-16T03:34:54;4.97;;;2.05;;
43150;SDS011;28755;51.478;5.702;2022-10-16T03:37:21;5.72;;;1.65;;
43150;SDS011;28755;51.478;5.702;2022-10-16T03:39:47;6.15;;;2.03;;
43150;SDS011;28755;51.478;5.702;2022-10-16T03:42:12;3.10;;;1.50;;
43150;SDS011;28755;51.478;5.702;2022-10-16T03:44:38;8.20;;;1.80;;
43150;SDS011;28755;51.478;5.702;2022-10-16T03:47:03;3.58;;;1.70;;
43150;SDS011;28755;51.478;5.702;2022-10-16T03:49:29;4.38;;;2.08;;
43150;SDS011;28755;51.478;5.702;2022-10-16T03:51:54;3.53;;;1.80;;
43150;SDS011;28755;51.478;5.702;2022-10-16T03:54:20;3.28;;;1.67;;
43150;SDS011;28755;51.478;5.702;2022-10-16T03:56:47;4.88;;;1.80;;
43150;SDS011;28755;51.478;5.702;2022-10-16T03:59:12;3.00;;;1.90;;
43150;SDS011;28755;51.478;5.702;2022-10-16T04:01:38;3.47;;;1.75;;
43150;SDS011;28755;51.478;5.702;2022-10-16T04:04:04;5.07;;;1.80;;
43150;SDS011;28755;51.478;5.702;2022-10-16T04:06:29;5.28;;;1.83;;
43150;SDS011;28755;51.478;5.702;2022-10-16T04:08:55;6.28;;;1.95;;
43150;SDS011;28755;51.478;5.702;2022-10-16T04:11:21;2.95;;;1.70;;
43150;SDS011;28755;51.478;5.702;2022-10-16T04:13:46;8.88;;;1.88;;
43150;SDS011;28755;51.478;5.702;2022-10-16T04:16:12;4.72;;;1.70;;
43150;SDS011;28755;51.478;5.702;2022-10-16T04:18:38;2.50;;;1.60;;
43150;SDS011;28755;51.478;5.702;2022-10-16T04:21:04;3.75;;;1.73;;
43150;SDS011;28755;51.478;5.702;2022-10-16T04:23:30;4.03;;;1.60;;
43150;SDS011;28755;51.478;5.702;2022-10-16T04:25:56;4.28;;;2.00;;
43150;SDS011;28755;51.478;5.702;2022-10-16T04:28:22;4.63;;;1.65;;
43150;SDS011;28755;51.478;5.702;2022-10-16T04:30:48;2.60;;;1.70;;
43150;SDS011;28755;51.478;5.702;2022-10-16T04:33:13;4.50;;;2.25;;
43150;SDS011;28755;51.478;5.702;2022-10-16T04:35:39;5.32;;;1.58;;
43150;SDS011;28755;51.478;5.702;2022-10-16T04:38:04;7.45;;;1.90;;
43150;SDS011;28755;51.478;5.702;2022-10-16T04:40:30;3.15;;;1.88;;
43150;SDS011;28755;51.478;5.702;2022-10-16T04:43:00;4.00;;;1.77;;
43150;SDS011;28755;51.478;5.702;2022-10-16T04:45:26;5.20;;;1.52;;
43150;SDS011;28755;51.478;5.702;2022-10-16T04:47:52;8.63;;;1.80;;
43150;SDS011;28755;51.478;5.702;2022-10-16T04:50:17;7.68;;;2.00;;
43150;SDS011;28755;51.478;5.702;2022-10-16T04:52:43;6.03;;;1.60;;
43150;SDS011;28755;51.478;5.702;2022-10-16T04:55:08;8.65;;;1.80;;
43150;SDS011;28755;51.478;5.702;2022-10-16T04:57:34;3.90;;;1.60;;
43150;SDS011;28755;51.478;5.702;2022-10-16T05:00:00;8.02;;;1.70;;
43150;SDS011;28755;51.478;5.702;2022-10-16T05:02:25;5.15;;;1.77;;
43150;SDS011;28755;51.478;5.702;2022-10-16T05:04:51;5.07;;;1.60;;
43150;SDS011;28755;51.478;5.702;2022-10-16T05:07:17;2.67;;;1.70;;
43150;SDS011;28755;51.478;5.702;2022-10-16T05:09:42;4.72;;;1.60;;
43150;SDS011;28755;51.478;5.702;2022-10-16T05:12:08;3.05;;;1.55;;
43150;SDS011;28755;51.478;5.702;2022-10-16T05:14:33;3.85;;;1.60;;
43150;SDS011;28755;51.478;5.702;2022-10-16T05:16:59;2.40;;;1.70;;
43150;SDS011;28755;51.478;5.702;2022-10-16T05:19:25;3.80;;;1.90;;
43150;SDS011;28755;51.478;5.702;2022-10-16T05:21:51;3.65;;;1.95;;
43150;SDS011;28755;51.478;5.702;2022-10-16T05:24:16;2.88;;;1.80;;
43150;SDS011;28755;51.478;5.702;2022-10-16T05:26:42;7.38;;;2.00;;
43150;SDS011;28755;51.478;5.702;2022-10-16T05:29:07;4.38;;;2.00;;
43150;SDS011;28755;51.478;5.702;2022-10-16T05:31:33;4.93;;;1.92;;
43150;SDS011;28755;51.478;5.702;2022-10-16T05:33:59;5.80;;;2.00;;
43150;SDS011;28755;51.478;5.702;2022-10-16T05:36:25;3.47;;;1.80;;
43150;SDS011;28755;51.478;5.702;2022-10-16T05:38:51;4.40;;;1.77;;
43150;SDS011;28755;51.478;5.702;2022-10-16T05:41:17;5.57;;;1.80;;
43150;SDS011;28755;51.478;5.702;2022-10-16T05:43:49;7.43;;;1.97;;
43150;SDS011;28755;51.478;5.702;2022-10-16T05:46:15;6.10;;;1.90;;
43150;SDS011;28755;51.478;5.702;2022-10-16T05:48:41;6.45;;;1.77;;
43150;SDS011;28755;51.478;5.702;2022-10-16T05:51:07;6.00;;;2.00;;
43150;SDS011;28755;51.478;5.702;2022-10-16T05:53:35;6.82;;;2.05;;
43150;SDS011;28755;51.478;5.702;2022-10-16T05:56:02;4.55;;;1.83;;
43150;SDS011;28755;51.478;5.702;2022-10-16T05:58:29;3.08;;;2.05;;
43150;SDS011;28755;51.478;5.702;2022-10-16T06:00:57;2.50;;;2.00;;
43150;SDS011;28755;51.478;5.702;2022-10-16T06:03:26;4.10;;;2.05;;
43150;SDS011;28755;51.478;5.702;2022-10-16T06:05:52;4.68;;;2.30;;
43150;SDS011;28755;51.478;5.702;2022-10-16T06:08:19;3.78;;;2.40;;
43150;SDS011;28755;51.478;5.702;2022-10-16T06:10:46;5.57;;;2.28;;
43150;SDS011;28755;51.478;5.702;2022-10-16T06:13:12;4.32;;;2.22;;
43150;SDS011;28755;51.478;5.702;2022-10-16T06:15:39;4.13;;;2.10;;
43150;SDS011;28755;51.478;5.702;2022-10-16T06:18:06;4.32;;;2.28;;
43150;SDS011;28755;51.478;5.702;2022-10-16T06:20:33;4.15;;;2.28;;
43150;SDS011;28755;51.478;5.702;2022-10-16T06:22:59;4.93;;;2.30;;
43150;SDS011;28755;51.478;5.702;2022-10-16T06:25:24;6.03;;;2.28;;
43150;SDS011;28755;51.478;5.702;2022-10-16T06:27:50;5.47;;;2.20;;
43150;SDS011;28755;51.478;5.702;2022-10-16T06:30:15;3.42;;;2.08;;
43150;SDS011;28755;51.478;5.702;2022-10-16T06:32:41;4.43;;;2.05;;
43150;SDS011;28755;51.478;5.702;2022-10-16T06:35:06;3.42;;;2.08;;
43150;SDS011;28755;51.478;5.702;2022-10-16T06:37:32;7.68;;;2.30;;
43150;SDS011;28755;51.478;5.702;2022-10-16T06:39:58;6.13;;;2.17;;
43150;SDS011;28755;51.478;5.702;2022-10-16T06:42:24;7.97;;;2.47;;
43150;SDS011;28755;51.478;5.702;2022-10-16T06:44:50;4.63;;;2.15;;
43150;SDS011;28755;51.478;5.702;2022-10-16T06:47:16;4.80;;;2.28;;
43150;SDS011;28755;51.478;5.702;2022-10-16T06:49:41;6.53;;;2.30;;
43150;SDS011;28755;51.478;5.702;2022-10-16T06:52:07;3.58;;;2.05;;
43150;SDS011;28755;51.478;5.702;2022-10-16T06:54:32;7.35;;;2.38;;
43150;SDS011;28755;51.478;5.702;2022-10-16T06:56:58;4.40;;;2.00;;
43150;SDS011;28755;51.478;5.702;2022-10-16T06:59:24;4.47;;;1.90;;
43150;SDS011;28755;51.478;5.702;2022-10-16T07:01:50;6.28;;;1.88;;
43150;SDS011;28755;51.478;5.702;2022-10-16T07:04:16;3.55;;;1.88;;
43150;SDS011;28755;51.478;5.702;2022-10-16T07:06:41;3.47;;;1.60;;
43150;SDS011;28755;51.478;5.702;2022-10-16T07:09:08;4.97;;;1.90;;
43150;SDS011;28755;51.478;5.702;2022-10-16T07:11:36;7.85;;;1.92;;
43150;SDS011;28755;51.478;5.702;2022-10-16T07:14:02;10.30;;;1.90;;
43150;SDS011;28755;51.478;5.702;2022-10-16T07:16:29;8.30;;;2.22;;
43150;SDS011;28755;51.478;5.702;2022-10-16T07:18:57;5.78;;;2.42;;
43150;SDS011;28755;51.478;5.702;2022-10-16T07:21:24;3.15;;;2.40;;
43150;SDS011;28755;51.478;5.702;2022-10-16T07:23:52;6.35;;;2.75;;
43150;SDS011;28755;51.478;5.702;2022-10-16T07:26:18;7.70;;;2.42;;
43150;SDS011;28755;51.478;5.702;2022-10-16T07:28:44;6.25;;;2.42;;
43150;SDS011;28755;51.478;5.702;2022-10-16T07:31:11;3.70;;;2.20;;
43150;SDS011;28755;51.478;5.702;2022-10-16T07:33:38;5.78;;;2.05;;
43150;SDS011;28755;51.478;5.702;2022-10-16T07:36:06;3.65;;;2.10;;
43150;SDS011;28755;51.478;5.702;2022-10-16T07:38:32;5.97;;;2.70;;
43150;SDS011;28755;51.478;5.702;2022-10-16T07:43:28;2.95;;;2.05;;
43150;SDS011;28755;51.478;5.702;2022-10-16T07:45:54;8.68;;;2.33;;
43150;SDS011;28755;51.478;5.702;2022-10-16T07:48:20;4.85;;;2.13;;
43150;SDS011;28755;51.478;5.702;2022-10-16T07:50:46;6.85;;;2.30;;
43150;SDS011;28755;51.478;5.702;2022-10-16T07:53:12;7.72;;;2.17;;
43150;SDS011;28755;51.478;5.702;2022-10-16T07:55:38;3.45;;;1.88;;
43150;SDS011;28755;51.478;5.702;2022-10-16T07:58:04;4.40;;;1.80;;
43150;SDS011;28755;51.478;5.702;2022-10-16T08:00:30;7.05;;;1.83;;
43150;SDS011;28755;51.478;5.702;2022-10-16T08:02:56;4.22;;;1.90;;
43150;SDS011;28755;51.478;5.702;2022-10-16T08:05:25;6.25;;;2.30;;
43150;SDS011;28755;51.478;5.702;2022-10-16T08:07:51;5.78;;;2.13;;
43150;SDS011;28755;51.478;5.702;2022-10-16T08:10:18;7.53;;;2.35;;
43150;SDS011;28755;51.478;5.702;2022-10-16T08:12:44;6.53;;;2.10;;
43150;SDS011;28755;51.478;5.702;2022-10-16T08:15:10;5.88;;;2.05;;
43150;SDS011;28755;51.478;5.702;2022-10-16T08:17:36;5.18;;;1.75;;
43150;SDS011;28755;51.478;5.702;2022-10-16T08:20:02;3.72;;;1.73;;
43150;SDS011;28755;51.478;5.702;2022-10-16T08:22:28;6.10;;;1.90;;
43150;SDS011;28755;51.478;5.702;2022-10-16T08:24:54;6.15;;;1.65;;
43150;SDS011;28755;51.478;5.702;2022-10-16T08:27:19;6.00;;;1.58;;
43150;SDS011;28755;51.478;5.702;2022-10-16T08:29:45;3.55;;;1.92;;
43150;SDS011;28755;51.478;5.702;2022-10-16T08:32:11;4.85;;;2.08;;
43150;SDS011;28755;51.478;5.702;2022-10-16T08:34:36;4.85;;;1.70;;
43150;SDS011;28755;51.478;5.702;2022-10-16T08:37:02;3.55;;;1.35;;
43150;SDS011;28755;51.478;5.702;2022-10-16T08:39:28;5.72;;;1.17;;
43150;SDS011;28755;51.478;5.702;2022-10-16T08:47:28;4.15;;;1.73;;
43150;SDS011;28755;51.478;5.702;2022-10-16T08:50:24;7.32;;;1.52;;
43150;SDS011;28755;51.478;5.702;2022-10-16T08:52:54;7.95;;;1.80;;
43150;SDS011;28755;51.478;5.702;2022-10-16T08:57:55;4.63;;;1.30;;
43150;SDS011;28755;51.478;5.702;2022-10-16T09:00:21;10.05;;;1.67;;
43150;SDS011;28755;51.478;5.702;2022-10-16T09:16:16;7.28;;;1.60;;
43150;SDS011;28755;51.478;5.702;2022-10-16T09:24:15;6.88;;;1.40;;
43150;SDS011;28755;51.478;5.702;2022-10-16T09:26:53;6.28;;;1.30;;
43150;SDS011;28755;51.478;5.702;2022-10-16T09:29:19;4.35;;;1.10;;
43150;SDS011;28755;51.478;5.702;2022-10-16T09:31:46;7.72;;;1.40;;
43150;SDS011;28755;51.478;5.702;2022-10-16T09:34:18;8.15;;;1.52;;
43150;SDS011;28755;51.478;5.702;2022-10-16T09:36:55;6.85;;;1.58;;
43150;SDS011;28755;51.478;5.702;2022-10-16T09:39:22;6.63;;;1.20;;
43150;SDS011;28755;51.478;5.702;2022-10-16T09:41:47;6.10;;;1.50;;
43150;SDS011;28755;51.478;5.702;2022-10-16T09:44:19;4.55;;;1.25;;
43150;SDS011;28755;51.478;5.702;2022-10-16T09:47:06;5.10;;;1.48;;
43150;SDS011;28755;51.478;5.702;2022-10-16T09:49:49;3.53;;;1.50;;
43150;SDS011;28755;51.478;5.702;2022-10-16T09:52:20;4.18;;;1.17;;
43150;SDS011;28755;51.478;5.702;2022-10-16T09:54:50;7.87;;;1.47;;
43150;SDS011;28755;51.478;5.702;2022-10-16T09:57:23;7.13;;;1.50;;
43150;SDS011;28755;51.478;5.702;2022-10-16T09:59:51;6.13;;;1.35;;
43150;SDS011;28755;51.478;5.702;2022-10-16T10:02:19;5.10;;;1.20;;
43150;SDS011;28755;51.478;5.702;2022-10-16T10:04:53;5.25;;;1.40;;
43150;SDS011;28755;51.478;5.702;2022-10-16T10:07:21;7.32;;;1.38;;
43150;SDS011;28755;51.478;5.702;2022-10-16T10:09:51;4.00;;;1.20;;
43150;SDS011;28755;51.478;5.702;2022-10-16T10:12:21;8.30;;;1.33;;
43150;SDS011;28755;51.478;5.702;2022-10-16T10:14:57;7.13;;;1.57;;
43150;SDS011;28755;51.478;5.702;2022-10-16T10:17:29;4.57;;;1.30;;
43150;SDS011;28755;51.478;5.702;2022-10-16T10:19:56;9.32;;;1.70;;
43150;SDS011;28755;51.478;5.702;2022-10-16T10:22:30;10.35;;;2.03;;
43150;SDS011;28755;51.478;5.702;2022-10-16T10:24:56;6.32;;;1.33;;
43150;SDS011;28755;51.478;5.702;2022-10-16T10:35:52;6.82;;;1.67;;
43150;SDS011;28755;51.478;5.702;2022-10-16T10:41:08;4.13;;;1.30;;
43150;SDS011;28755;51.478;5.702;2022-10-16T10:49:33;7.05;;;1.25;;
43150;SDS011;28755;51.478;5.702;2022-10-16T10:55:10;6.70;;;1.60;;
43150;SDS011;28755;51.478;5.702;2022-10-16T11:06:40;7.72;;;1.77;;
43150;SDS011;28755;51.478;5.702;2022-10-16T11:11:47;6.05;;;1.50;;
43150;SDS011;28755;51.478;5.702;2022-10-16T11:14:21;6.60;;;1.90;;
43150;SDS011;28755;51.478;5.702;2022-10-16T11:16:53;7.90;;;1.80;;
43150;SDS011;28755;51.478;5.702;2022-10-16T11:19:35;10.18;;;1.98;;
43150;SDS011;28755;51.478;5.702;2022-10-16T11:22:15;5.65;;;1.58;;
43150;SDS011;28755;51.478;5.702;2022-10-16T11:24:55;9.10;;;1.77;;
43150;SDS011;28755;51.478;5.702;2022-10-16T11:27:39;6.95;;;1.63;;
43150;SDS011;28755;51.478;5.702;2022-10-16T11:30:16;15.05;;;1.77;;
43150;SDS011;28755;51.478;5.702;2022-10-16T11:33:02;6.70;;;1.40;;
43150;SDS011;28755;51.478;5.702;2022-10-16T11:38:43;6.32;;;1.60;;
43150;SDS011;28755;51.478;5.702;2022-10-16T11:44:05;7.05;;;1.85;;
43150;SDS011;28755;51.478;5.702;2022-10-16T11:46:32;6.38;;;1.40;;
43150;SDS011;28755;51.478;5.702;2022-10-16T11:49:07;7.73;;;1.17;;
43150;SDS011;28755;51.478;5.702;2022-10-16T11:51:42;6.65;;;1.52;;
43150;SDS011;28755;51.478;5.702;2022-10-16T11:54:18;6.45;;;1.27;;
43150;SDS011;28755;51.478;5.702;2022-10-16T11:56:50;7.32;;;1.73;;
43150;SDS011;28755;51.478;5.702;2022-10-16T11:59:24;8.10;;;1.40;;
43150;SDS011;28755;51.478;5.702;2022-10-16T12:04:47;7.13;;;1.47;;
43150;SDS011;28755;51.478;5.702;2022-10-16T12:07:18;5.68;;;1.38;;
43150;SDS011;28755;51.478;5.702;2022-10-16T12:10:22;11.07;;;1.38;;
43150;SDS011;28755;51.478;5.702;2022-10-16T12:12:52;5.35;;;1.35;;
43150;SDS011;28755;51.478;5.702;2022-10-16T12:15:20;8.65;;;1.20;;
43150;SDS011;28755;51.478;5.702;2022-10-16T12:17:50;10.85;;;1.92;;
43150;SDS011;28755;51.478;5.702;2022-10-16T12:22:55;8.50;;;1.25;;
43150;SDS011;28755;51.478;5.702;2022-10-16T12:28:07;4.57;;;0.90;;
43150;SDS011;28755;51.478;5.702;2022-10-16T12:30:54;6.03;;;1.38;;
43150;SDS011;28755;51.478;5.702;2022-10-16T12:33:28;5.28;;;1.38;;
43150;SDS011;28755;51.478;5.702;2022-10-16T12:36:09;7.45;;;1.30;;
43150;SDS011;28755;51.478;5.702;2022-10-16T12:38:52;11.93;;;1.45;;
43150;SDS011;28755;51.478;5.702;2022-10-16T12:41:29;7.47;;;1.27;;
43150;SDS011;28755;51.478;5.702;2022-10-16T12:44:04;35.88;;;2.58;;
43150;SDS011;28755;51.478;5.702;2022-10-16T12:46:46;15.80;;;1.67;;
43150;SDS011;28755;51.478;5.702;2022-10-16T12:51:37;7.28;;;1.27;;
43150;SDS011;28755;51.478;5.702;2022-10-16T13:08:39;5.10;;;1.35;;
43150;SDS011;28755;51.478;5.702;2022-10-16T13:11:42;7.07;;;1.20;;
43150;SDS011;28755;51.478;5.702;2022-10-16T13:19:38;6.47;;;1.20;;
43150;SDS011;28755;51.478;5.702;2022-10-16T13:22:29;8.75;;;1.60;;
43150;SDS011;28755;51.478;5.702;2022-10-16T13:28:10;7.50;;;1.40;;
43150;SDS011;28755;51.478;5.702;2022-10-16T13:30:41;7.65;;;1.30;;
43150;SDS011;28755;51.478;5.702;2022-10-16T13:35:58;4.65;;;1.30;;
43150;SDS011;28755;51.478;5.702;2022-10-16T13:38:25;7.25;;;1.40;;
43150;SDS011;28755;51.478;5.702;2022-10-16T13:41:00;5.60;;;1.15;;
43150;SDS011;28755;51.478;5.702;2022-10-16T13:46:06;6.18;;;1.10;;
43150;SDS011;28755;51.478;5.702;2022-10-16T13:48:37;8.32;;;1.35;;
43150;SDS011;28755;51.478;5.702;2022-10-16T13:51:20;4.28;;;1.15;;
43150;SDS011;28755;51.478;5.702;2022-10-16T13:53:46;4.60;;;0.90;;
43150;SDS011;28755;51.478;5.702;2022-10-16T13:56:13;5.43;;;1.30;;
43150;SDS011;28755;51.478;5.702;2022-10-16T13:58:40;8.25;;;1.40;;
43150;SDS011;28755;51.478;5.702;2022-10-16T14:03:45;3.95;;;1.00;;
43150;SDS011;28755;51.478;5.702;2022-10-16T14:06:13;8.75;;;1.20;;
43150;SDS011;28755;51.478;5.702;2022-10-16T14:11:33;6.88;;;1.23;;
43150;SDS011;28755;51.478;5.702;2022-10-16T14:14:02;5.10;;;1.30;;
43150;SDS011;28755;51.478;5.702;2022-10-16T14:16:29;4.55;;;1.23;;
43150;SDS011;28755;51.478;5.702;2022-10-16T14:21:24;11.07;;;1.42;;
43150;SDS011;28755;51.478;5.702;2022-10-16T14:23:50;4.40;;;1.30;;
43150;SDS011;28755;51.478;5.702;2022-10-16T14:26:17;6.55;;;1.20;;
43150;SDS011;28755;51.478;5.702;2022-10-16T14:28:45;6.43;;;1.30;;
43150;SDS011;28755;51.478;5.702;2022-10-16T14:31:31;5.45;;;1.73;;
43150;SDS011;28755;51.478;5.702;2022-10-16T14:33:58;8.32;;;1.30;;
43150;SDS011;28755;51.478;5.702;2022-10-16T14:36:25;5.13;;;1.25;;
43150;SDS011;28755;51.478;5.702;2022-10-16T14:41:20;8.10;;;1.40;;
43150;SDS011;28755;51.478;5.702;2022-10-16T14:43:49;5.88;;;1.25;;
43150;SDS011;28755;51.478;5.702;2022-10-16T14:46:20;7.28;;;1.42;;
43150;SDS011;28755;51.478;5.702;2022-10-16T14:48:51;7.82;;;1.40;;
43150;SDS011;28755;51.478;5.702;2022-10-16T14:51:30;5.10;;;1.27;;
43150;SDS011;28755;51.478;5.702;2022-10-16T14:53:56;4.65;;;1.40;;
43150;SDS011;28755;51.478;5.702;2022-10-16T14:56:26;7.18;;;1.63;;
43150;SDS011;28755;51.478;5.702;2022-10-16T14:58:55;5.97;;;1.30;;
43150;SDS011;28755;51.478;5.702;2022-10-16T15:01:21;8.05;;;1.55;;
43150;SDS011;28755;51.478;5.702;2022-10-16T15:03:50;4.28;;;1.40;;
43150;SDS011;28755;51.478;5.702;2022-10-16T15:06:18;5.97;;;1.23;;
43150;SDS011;28755;51.478;5.702;2022-10-16T15:08:44;8.57;;;1.58;;
43150;SDS011;28755;51.478;5.702;2022-10-16T15:11:14;5.82;;;1.08;;
43150;SDS011;28755;51.478;5.702;2022-10-16T15:13:42;10.10;;;1.50;;
43150;SDS011;28755;51.478;5.702;2022-10-16T15:16:10;9.38;;;1.15;;
43150;SDS011;28755;51.478;5.702;2022-10-16T15:18:37;9.65;;;1.60;;
43150;SDS011;28755;51.478;5.702;2022-10-16T15:21:03;5.78;;;1.48;;
43150;SDS011;28755;51.478;5.702;2022-10-16T15:23:28;7.43;;;1.10;;
43150;SDS011;28755;51.478;5.702;2022-10-16T15:25:55;8.27;;;1.15;;
43150;SDS011;28755;51.478;5.702;2022-10-16T15:28:21;6.18;;;1.25;;
43150;SDS011;28755;51.478;5.702;2022-10-16T15:30:49;7.57;;;1.30;;
43150;SDS011;28755;51.478;5.702;2022-10-16T15:33:20;6.68;;;1.40;;
43150;SDS011;28755;51.478;5.702;2022-10-16T15:35:49;4.05;;;1.20;;
43150;SDS011;28755;51.478;5.702;2022-10-16T15:38:16;12.55;;;1.85;;
43150;SDS011;28755;51.478;5.702;2022-10-16T15:40:43;6.45;;;1.30;;
43150;SDS011;28755;51.478;5.702;2022-10-16T15:43:09;8.32;;;1.38;;
43150;SDS011;28755;51.478;5.702;2022-10-16T15:45:35;4.80;;;1.38;;
43150;SDS011;28755;51.478;5.702;2022-10-16T15:48:01;5.07;;;1.40;;
43150;SDS011;28755;51.478;5.702;2022-10-16T15:50:26;5.18;;;1.23;;
43150;SDS011;28755;51.478;5.702;2022-10-16T15:52:52;3.38;;;1.17;;
43150;SDS011;28755;51.478;5.702;2022-10-16T15:55:17;4.57;;;1.50;;
43150;SDS011;28755;51.478;5.702;2022-10-16T15:57:43;3.13;;;1.02;;
43150;SDS011;28755;51.478;5.702;2022-10-16T16:00:14;5.95;;;1.40;;
43150;SDS011;28755;51.478;5.702;2022-10-16T16:02:42;3.30;;;1.45;;
43150;SDS011;28755;51.478;5.702;2022-10-16T16:05:09;8.55;;;1.50;;
43150;SDS011;28755;51.478;5.702;2022-10-16T16:07:35;5.32;;;1.67;;
43150;SDS011;28755;51.478;5.702;2022-10-16T16:10:02;3.38;;;1.30;;
43150;SDS011;28755;51.478;5.702;2022-10-16T16:12:29;6.88;;;1.42;;
43150;SDS011;28755;51.478;5.702;2022-10-16T16:14:55;5.35;;;1.60;;
43150;SDS011;28755;51.478;5.702;2022-10-16T16:17:21;4.90;;;1.60;;
43150;SDS011;28755;51.478;5.702;2022-10-16T16:19:47;4.50;;;2.08;;
43150;SDS011;28755;51.478;5.702;2022-10-16T16:22:12;6.35;;;2.05;;
43150;SDS011;28755;51.478;5.702;2022-10-16T16:24:38;13.00;;;2.00;;
43150;SDS011;28755;51.478;5.702;2022-10-16T16:27:03;8.88;;;2.53;;
43150;SDS011;28755;51.478;5.702;2022-10-16T16:29:29;5.75;;;2.40;;
43150;SDS011;28755;51.478;5.702;2022-10-16T16:31:55;10.32;;;2.70;;
43150;SDS011;28755;51.478;5.702;2022-10-16T16:34:27;6.07;;;2.25;;
43150;SDS011;28755;51.478;5.702;2022-10-16T16:36:56;8.38;;;2.30;;
43150;SDS011;28755;51.478;5.702;2022-10-16T16:39:22;14.00;;;2.83;;
43150;SDS011;28755;51.478;5.702;2022-10-16T16:41:48;9.10;;;2.03;;
43150;SDS011;28755;51.478;5.702;2022-10-16T16:44:14;10.43;;;2.47;;
43150;SDS011;28755;51.478;5.702;2022-10-16T16:46:41;14.85;;;2.90;;
43150;SDS011;28755;51.478;5.702;2022-10-16T16:49:12;13.30;;;2.58;;
43150;SDS011;28755;51.478;5.702;2022-10-16T16:51:38;7.13;;;2.20;;
43150;SDS011;28755;51.478;5.702;2022-10-16T16:54:04;5.63;;;2.05;;
43150;SDS011;28755;51.478;5.702;2022-10-16T16:56:32;7.50;;;1.90;;
43150;SDS011;28755;51.478;5.702;2022-10-16T16:58:58;9.55;;;1.73;;
43150;SDS011;28755;51.478;5.702;2022-10-16T17:01:25;6.05;;;2.15;;
43150;SDS011;28755;51.478;5.702;2022-10-16T17:03:52;9.88;;;2.22;;
43150;SDS011;28755;51.478;5.702;2022-10-16T17:06:20;6.90;;;1.88;;
43150;SDS011;28755;51.478;5.702;2022-10-16T17:08:48;5.13;;;1.90;;
43150;SDS011;28755;51.478;5.702;2022-10-16T17:11:15;6.18;;;1.80;;
43150;SDS011;28755;51.478;5.702;2022-10-16T17:13:43;5.78;;;2.05;;